Bombay Beach, California
Current Conditions -  °F | °C
As of 2:53 AM on Sunday 23 Nov 2014 (Local Time) from KIPL Reporting Station
Clear Clear  
Wind Chill: 53°   Ceiling: Unl
Heat Index: 53°   Visibility: 10mi
Dew Point: 43°   Wind: 0mph
Humidity: 69%   Direction: NA
Pressure: 29.93"   Gusts: NA
Location:  33.3324°N, 115.621°W
Report Text: KIPL 231053Z AUTO 00000KT 10SM CLR 12/06 A2993 RMK AO2 SLP136 T01170061
Loading
Personal Weather Stations






























Interactive Weather Map New forecast layout! Learn more

10-Day Weather Forecast

Advertisements
Track Severe Weather on mobile